Time;durP1;ratioP1;P1;durP2;ratioP2;P2;SDS_P1;SDS_P2;PMS_P1;PMS_P2;Temp;Humidity;BMP_temperature;BMP_pressure;BME280_temperature;BME280_humidity;BME280_pressure;Samples;Min_cycle;Max_cycle;Signal;HPM_P1;HPM_P2
2022/03/19 00:00:23;;;;;;;18.35;3.33;;;3.70;99.90;;;;;;5101412;28;20500;-69
2022/03/19 00:02:49;;;;;;;19.85;4.85;;;3.70;99.90;;;;;;5099937;28;20106;-69
2022/03/19 00:05:15;;;;;;;23.45;4.13;;;3.70;99.90;;;;;;5101858;28;20036;-70
2022/03/19 00:07:40;;;;;;;22.70;3.30;;;3.70;99.90;;;;;;5104174;28;20043;-69
2022/03/19 00:10:08;;;;;;;20.25;3.28;;;3.60;99.90;;;;;;5099004;28;20415;-68
2022/03/19 00:12:34;;;;;;;;;;;3.70;99.90;;;;;;5104210;28;20412;-68
2022/03/19 00:15:01;;;;;;;16.05;3.33;;;3.60;99.90;;;;;;5095532;28;19920;-68
2022/03/19 00:17:26;;;;;;;21.65;3.22;;;3.60;99.90;;;;;;5095691;28;20121;-68
2022/03/19 00:19:52;;;;;;;19.52;3.85;;;3.60;99.90;;;;;;5100903;28;20052;-69
2022/03/19 00:22:18;;;;;;;19.77;3.00;;;3.60;99.90;;;;;;5103985;28;20051;-70
2022/03/19 00:24:43;;;;;;;15.35;2.95;;;3.70;99.90;;;;;;5098536;28;20039;-68
2022/03/19 00:27:09;;;;;;;20.95;4.13;;;3.70;99.90;;;;;;5093971;28;20128;-68
2022/03/19 00:29:35;;;;;;;15.77;3.50;;;3.60;99.90;;;;;;5102926;28;20063;-69
2022/03/19 00:32:00;;;;;;;24.65;3.35;;;3.70;99.90;;;;;;5104568;28;20044;-68
2022/03/19 00:34:26;;;;;;;14.05;3.08;;;3.70;99.90;;;;;;5099943;28;20040;-68
2022/03/19 00:36:53;;;;;;;15.98;3.25;;;3.70;99.90;;;;;;5092418;28;20064;-68
2022/03/19 00:39:18;;;;;;;13.50;3.08;;;3.60;99.90;;;;;;5105557;28;20122;-70
2022/03/19 00:41:44;;;;;;;16.60;3.45;;;3.60;99.90;;;;;;5104287;28;20060;-69
2022/03/19 00:44:10;;;;;;;17.33;4.05;;;3.60;99.90;;;;;;5102890;28;20040;-68
2022/03/19 00:46:35;;;;;;;20.73;3.85;;;3.60;99.90;;;;;;5090676;28;20096;-68
2022/03/19 00:49:01;;;;;;;19.73;3.97;;;3.50;99.90;;;;;;5094763;28;20044;-70
2022/03/19 00:51:27;;;;;;;13.25;3.35;;;3.50;99.90;;;;;;5100597;28;20067;-69
2022/03/19 00:53:53;;;;;;;20.33;3.55;;;3.40;99.90;;;;;;5104353;28;20123;-67
2022/03/19 00:56:18;;;;;;;22.83;3.63;;;3.30;99.90;;;;;;5090510;28;20043;-68
2022/03/19 00:58:44;;;;;;;21.45;3.90;;;3.20;99.90;;;;;;5104163;28;20138;-68
2022/03/19 01:01:10;;;;;;;26.40;4.10;;;3.20;99.90;;;;;;5099946;28;20044;-70
2022/03/19 01:03:35;;;;;;;19.80;3.97;;;3.10;99.90;;;;;;5103065;28;20031;-69
2022/03/19 01:06:01;;;;;;;19.88;3.75;;;3.10;99.90;;;;;;5089436;28;20127;-69
2022/03/19 01:08:27;;;;;;;18.90;3.60;;;3.00;99.90;;;;;;5096494;28;20041;-69
2022/03/19 01:10:53;;;;;;;19.60;3.17;;;3.10;99.90;;;;;;5096656;28;20115;-69
2022/03/19 01:13:19;;;;;;;32.90;5.05;;;3.10;99.90;;;;;;5091092;28;20443;-68
2022/03/19 01:15:44;;;;;;;21.35;3.53;;;3.00;99.90;;;;;;5093818;28;20056;-68
2022/03/19 01:18:10;;;;;;;19.67;3.47;;;3.00;99.90;;;;;;5114022;28;20078;-69
2022/03/19 01:20:36;;;;;;;20.42;4.30;;;3.10;99.90;;;;;;5113845;28;20047;-68
2022/03/19 01:23:02;;;;;;;15.07;4.63;;;2.80;99.90;;;;;;5104296;28;20044;-68
2022/03/19 01:25:27;;;;;;;26.95;3.80;;;2.80;99.90;;;;;;5112545;28;20087;-68
2022/03/19 01:27:53;;;;;;;18.45;4.85;;;2.80;99.90;;;;;;5108770;28;20063;-68
2022/03/19 01:30:21;;;;;;;21.42;3.95;;;2.70;99.90;;;;;;5123198;28;20039;-68
2022/03/19 01:32:47;;;;;;;22.02;3.92;;;2.60;99.90;;;;;;5114030;27;20537;-68
2022/03/19 01:35:15;;;;;;;42.13;6.18;;;2.70;99.90;;;;;;5093837;28;20032;-68
2022/03/19 01:37:41;;;;;;;16.50;3.97;;;2.60;99.90;;;;;;5091323;28;20059;-68
2022/03/19 01:40:09;;;;;;;24.52;4.68;;;2.50;99.90;;;;;;5108241;28;20040;-69
2022/03/19 01:42:37;;;;;;;21.45;4.38;;;2.50;99.90;;;;;;5106197;28;20071;-69
2022/03/19 01:45:05;;;;;;;20.10;4.85;;;2.50;99.90;;;;;;5108102;28;20103;-69
2022/03/19 01:47:31;;;;;;;23.13;4.97;;;2.40;99.90;;;;;;5106911;28;20052;-69
2022/03/19 01:49:58;;;;;;;24.45;4.65;;;2.30;99.90;;;;;;5107560;28;20044;-68
2022/03/19 01:52:28;;;;;;;15.82;3.40;;;2.20;99.90;;;;;;5096783;28;20113;-68
2022/03/19 01:54:54;;;;;;;18.30;4.55;;;2.10;99.90;;;;;;5087790;28;20048;-68
2022/03/19 01:57:28;;;;;;;21.55;5.00;;;2.10;99.90;;;;;;5087623;28;20049;-69
2022/03/19 01:59:56;;;;;;;19.40;3.55;;;2.00;99.90;;;;;;5087529;28;20044;-68
2022/03/19 02:02:25;;;;;;;21.98;3.83;;;2.10;99.90;;;;;;5087094;28;20090;-69
2022/03/19 02:04:52;;;;;;;26.40;4.50;;;2.00;99.90;;;;;;5086911;28;20048;-70
2022/03/19 02:07:18;;;;;;;24.83;4.20;;;2.20;99.90;;;;;;5097570;28;20058;-69
2022/03/19 02:09:43;;;;;;;17.02;3.60;;;2.20;99.90;;;;;;5107849;28;20075;-69
2022/03/19 02:12:09;;;;;;;21.20;3.92;;;2.10;99.90;;;;;;5107187;28;20044;-69
2022/03/19 02:14:37;;;;;;;30.38;4.53;;;2.00;99.90;;;;;;5107364;28;20068;-68
2022/03/19 02:17:04;;;;;;;29.45;5.13;;;1.90;99.90;;;;;;5094884;28;20474;-69
2022/03/19 02:19:30;;;;;;;22.27;4.68;;;1.90;99.90;;;;;;5086649;28;20048;-68
2022/03/19 02:21:56;;;;;;;29.85;5.03;;;1.90;99.90;;;;;;5086384;28;20049;-68
2022/03/19 02:27:06;;;;;;;23.27;5.88;;;2.00;99.90;;;;;;5103812;28;20059;-68
2022/03/19 02:29:32;;;;;;;25.88;4.07;;;2.10;99.90;;;;;;5102680;28;20040;-68
2022/03/19 02:32:01;;;;;;;19.42;5.10;;;2.10;99.90;;;;;;5107064;28;20072;-69
2022/03/19 02:34:27;;;;;;;21.88;4.15;;;2.20;99.90;;;;;;5106671;28;20065;-68
2022/03/19 02:36:52;;;;;;;23.08;3.92;;;2.20;99.90;;;;;;5096012;28;20044;-68
2022/03/19 02:39:21;;;;;;;23.10;4.65;;;2.30;99.90;;;;;;5086886;28;20058;-68
2022/03/19 02:41:50;;;;;;;28.40;5.13;;;2.40;99.90;;;;;;5085515;28;20044;-68
2022/03/19 02:44:18;;;;;;;22.88;4.57;;;2.40;99.90;;;;;;5086534;28;20049;-68
2022/03/19 02:46:47;;;;;;;20.70;4.07;;;2.50;99.90;;;;;;5093041;28;20055;-68
2022/03/19 02:49:13;;;;;;;31.77;5.80;;;2.50;99.90;;;;;;5092688;28;20080;-68
2022/03/19 02:51:41;;;;;;;17.65;4.50;;;2.40;99.90;;;;;;5085663;28;20135;-68
2022/03/19 02:54:10;;;;;;;24.98;6.65;;;2.40;99.90;;;;;;5086708;28;20049;-69
2022/03/19 02:56:37;;;;;;;;;;;2.40;99.90;;;;;;5086942;28;20047;-68
2022/03/19 02:59:06;;;;;;;25.40;5.15;;;2.40;99.90;;;;;;5086227;28;19920;-70
2022/03/19 03:01:32;;;;;;;12.25;5.15;;;2.40;99.90;;;;;;5086044;28;20400;-70
2022/03/19 03:03:58;;;;;;;32.05;5.55;;;2.40;99.90;;;;;;5099040;28;20052;-68
2022/03/19 03:06:24;;;;;;;21.45;5.88;;;2.40;99.90;;;;;;5103835;28;20123;-69
2022/03/19 03:08:50;;;;;;;16.15;4.80;;;2.30;99.90;;;;;;5103458;28;20055;-67
2022/03/19 03:11:15;;;;;;;28.60;5.38;;;2.30;99.90;;;;;;5106079;28;20059;-69
2022/03/19 03:13:41;;;;;;;17.13;5.15;;;2.40;99.90;;;;;;5104863;28;20036;-68
2022/03/19 03:16:07;;;;;;;22.83;5.32;;;2.30;99.90;;;;;;5105224;28;20078;-69
2022/03/19 03:18:33;;;;;;;11.52;4.65;;;2.30;99.90;;;;;;5105947;28;20052;-70
2022/03/19 03:20:59;;;;;;;24.95;4.70;;;2.20;99.90;;;;;;5105394;28;20511;-67
2022/03/19 03:23:26;;;;;;;30.08;5.22;;;2.30;99.90;;;;;;5106583;28;20036;-68
2022/03/19 03:25:52;;;;;;;23.63;5.45;;;2.10;99.90;;;;;;5103431;28;20056;-68
2022/03/19 03:28:18;;;;;;;23.88;5.18;;;2.00;99.90;;;;;;5085457;28;20071;-68
2022/03/19 03:30:44;;;;;;;28.50;6.07;;;1.90;99.90;;;;;;5085407;28;20044;-67
2022/03/19 03:33:10;;;;;;;30.75;6.70;;;1.90;99.90;;;;;;5085194;28;20044;-68
2022/03/19 03:35:36;;;;;;;22.70;5.50;;;1.90;99.90;;;;;;5090803;28;20154;-67
2022/03/19 03:38:01;;;;;;;23.67;6.50;;;2.00;99.90;;;;;;5103718;28;20052;-67
2022/03/19 03:40:27;;;;;;;22.25;5.72;;;2.20;99.90;;;;;;5105551;28;20050;-68
2022/03/19 03:42:54;;;;;;;19.65;6.03;;;2.10;99.90;;;;;;5105495;28;20048;-69
2022/03/19 03:45:20;;;;;;;28.42;7.13;;;2.20;99.90;;;;;;5102984;28;20044;-70
2022/03/19 03:47:46;;;;;;;33.88;7.65;;;2.20;99.90;;;;;;5085070;28;20048;-69
2022/03/19 03:50:12;;;;;;;31.10;7.35;;;2.20;99.90;;;;;;5085098;28;20047;-69
2022/03/19 03:52:38;;;;;;;20.92;6.53;;;2.20;99.90;;;;;;5090277;28;20067;-69
2022/03/19 03:55:06;;;;;;;30.75;8.10;;;2.20;99.90;;;;;;5104467;28;20040;-70
2022/03/19 03:57:35;;;;;;;;;;;2.20;99.90;;;;;;5105651;28;20048;-69
2022/03/19 04:00:02;;;;;;;25.98;6.38;;;2.10;99.90;;;;;;5105108;28;19927;-69
2022/03/19 04:02:28;;;;;;;22.42;6.25;;;2.00;99.90;;;;;;5105145;28;20495;-69
2022/03/19 04:04:53;;;;;;;24.13;6.63;;;1.90;99.90;;;;;;5103929;28;20061;-69
2022/03/19 04:07:19;;;;;;;24.63;6.20;;;1.90;99.90;;;;;;5083947;28;20032;-69
2022/03/19 04:09:45;;;;;;;21.42;7.38;;;1.80;99.90;;;;;;5084742;28;20040;-70
2022/03/19 04:12:11;;;;;;;31.30;8.43;;;1.70;99.90;;;;;;5084624;28;20044;-67
2022/03/19 04:14:36;;;;;;;30.58;6.32;;;1.70;99.90;;;;;;5084501;28;20055;-69
2022/03/19 04:17:04;;;;;;;31.08;8.18;;;1.60;99.90;;;;;;5101650;28;20044;-69
2022/03/19 04:19:30;;;;;;;26.80;7.60;;;1.50;99.90;;;;;;5104590;28;20050;-69
2022/03/19 04:21:56;;;;;;;28.02;7.00;;;1.50;99.90;;;;;;5104334;28;20095;-68
2022/03/19 04:24:22;;;;;;;32.35;6.57;;;1.40;99.90;;;;;;5104830;28;20047;-69
2022/03/19 04:26:48;;;;;;;29.40;8.00;;;1.40;99.90;;;;;;5086568;28;20036;-69
2022/03/19 04:29:13;;;;;;;21.08;7.25;;;1.50;99.90;;;;;;5084670;28;20040;-68
2022/03/19 04:31:39;;;;;;;21.77;8.00;;;1.50;99.90;;;;;;5084626;28;20059;-68
2022/03/19 04:34:05;;;;;;;39.50;8.02;;;1.60;99.90;;;;;;5084010;28;20044;-68
2022/03/19 04:36:30;;;;;;;26.70;7.97;;;1.60;99.90;;;;;;5097279;28;20048;-68
2022/03/19 04:39:02;;;;;;;28.90;8.02;;;1.60;99.90;;;;;;5104730;28;20051;-68
2022/03/19 04:41:28;;;;;;;42.80;9.75;;;1.80;99.90;;;;;;5104420;28;20069;-68
2022/03/19 04:43:54;;;;;;;31.75;7.57;;;1.90;99.90;;;;;;5104388;28;20048;-68
2022/03/19 04:46:20;;;;;;;23.90;7.88;;;1.90;99.90;;;;;;5103816;28;20066;-68
2022/03/19 04:48:46;;;;;;;25.33;7.18;;;1.80;99.90;;;;;;5104138;28;20036;-68
2022/03/19 04:51:18;;;;;;;23.35;8.07;;;1.80;99.90;;;;;;5103639;28;20573;-69
2022/03/19 04:53:52;;;;;;;29.73;8.02;;;1.70;99.90;;;;;;5104209;28;20048;-68
2022/03/19 04:56:24;;;;;;;21.33;7.72;;;1.80;99.90;;;;;;5091252;28;20052;-68
2022/03/19 04:58:54;;;;;;;31.63;8.27;;;1.80;99.90;;;;;;5084237;28;20137;-68
2022/03/19 05:01:21;;;;;;;22.27;8.90;;;1.90;99.90;;;;;;5084269;28;20048;-68
2022/03/19 05:03:47;;;;;;;27.90;8.93;;;1.90;99.90;;;;;;5083813;28;20053;-68
2022/03/19 05:06:12;;;;;;;25.83;8.50;;;2.10;99.90;;;;;;5083270;28;20052;-68
2022/03/19 05:08:38;;;;;;;25.95;9.48;;;2.10;99.90;;;;;;5084001;28;20049;-68
2022/03/19 05:11:13;;;;;;;23.02;8.85;;;2.10;99.90;;;;;;5083709;28;20040;-68
2022/03/19 05:13:44;;;;;;;26.52;9.30;;;2.20;99.90;;;;;;5090804;28;20040;-68
2022/03/19 05:16:10;;;;;;;29.38;9.95;;;2.40;99.90;;;;;;5104275;28;20055;-68
2022/03/19 05:18:37;;;;;;;27.98;10.60;;;2.50;99.90;;;;;;5103892;28;20108;-69
2022/03/19 05:21:04;;;;;;;29.65;9.70;;;2.50;99.90;;;;;;5103440;28;20043;-68
2022/03/19 05:23:30;;;;;;;31.38;10.80;;;2.40;99.90;;;;;;5103401;28;20068;-68
2022/03/19 05:25:57;;;;;;;26.60;9.32;;;2.50;99.90;;;;;;5088658;28;20076;-68
2022/03/19 05:28:23;;;;;;;26.10;10.45;;;2.50;99.90;;;;;;5084104;28;20059;-70
2022/03/19 05:30:48;;;;;;;23.25;8.38;;;2.60;99.90;;;;;;5083865;28;20040;-68
2022/03/19 05:33:15;;;;;;;29.95;11.00;;;2.80;99.90;;;;;;5104043;28;20055;-67
2022/03/19 05:35:42;;;;;;;32.42;10.68;;;2.80;99.90;;;;;;5083002;28;20100;-68
2022/03/19 05:38:07;;;;;;;21.77;9.93;;;2.80;99.90;;;;;;5091398;28;20056;-68
2022/03/19 05:40:33;;;;;;;27.55;10.88;;;2.90;99.90;;;;;;5098427;28;20039;-69
2022/03/19 05:42:59;;;;;;;21.05;10.10;;;2.90;99.90;;;;;;5095074;28;20105;-70
2022/03/19 05:45:25;;;;;;;27.52;10.05;;;2.90;99.90;;;;;;5100687;28;20039;-68
2022/03/19 05:47:51;;;;;;;19.95;9.20;;;2.90;99.90;;;;;;5102001;28;20055;-68
2022/03/19 05:50:17;;;;;;;32.47;10.88;;;2.90;99.90;;;;;;5102828;28;20126;-69
2022/03/19 05:52:47;;;;;;;32.00;11.68;;;2.80;99.90;;;;;;5097517;28;20052;-69
2022/03/19 05:55:13;;;;;;;34.70;11.65;;;2.90;99.90;;;;;;5089422;28;20040;-69
2022/03/19 05:57:40;;;;;;;28.98;12.20;;;3.00;99.90;;;;;;5091069;28;20115;-70
2022/03/19 06:00:08;;;;;;;35.40;12.20;;;3.10;99.90;;;;;;5091304;28;20101;-69
2022/03/19 06:02:41;;;;;;;;;;;3.10;99.90;;;;;;5099290;28;20164;-68
2022/03/19 06:05:07;;;;;;;28.33;10.13;;;3.10;99.90;;;;;;5088900;28;19920;-67
2022/03/19 06:07:33;;;;;;;29.35;10.60;;;3.20;99.90;;;;;;5102016;28;20044;-67
2022/03/19 06:09:59;;;;;;;32.25;10.95;;;3.30;99.90;;;;;;5098259;28;20123;-69
2022/03/19 06:12:25;;;;;;;32.20;12.27;;;3.30;99.90;;;;;;5091318;28;20044;-69
2022/03/19 06:14:53;;;;;;;27.38;9.68;;;3.30;99.90;;;;;;5086610;28;20078;-69
2022/03/19 06:17:20;;;;;;;19.30;8.30;;;3.40;99.90;;;;;;5084918;28;20052;-69
2022/03/19 06:19:46;;;;;;;20.35;7.68;;;3.40;99.90;;;;;;5086519;28;20040;-68
2022/03/19 06:22:11;;;;;;;18.98;8.82;;;3.30;99.90;;;;;;5096774;28;20520;-69
2022/03/19 06:24:37;;;;;;;28.08;9.25;;;3.30;99.90;;;;;;5107125;28;20123;-69
2022/03/19 06:27:03;;;;;;;22.40;9.68;;;3.40;99.90;;;;;;5106982;28;20117;-69
2022/03/19 06:29:30;;;;;;;20.80;8.35;;;3.40;99.90;;;;;;5107057;28;20137;-69
2022/03/19 06:31:55;;;;;;;16.95;8.00;;;3.40;99.90;;;;;;5106785;28;20040;-69
2022/03/19 06:34:21;;;;;;;26.13;9.32;;;3.40;99.90;;;;;;5106554;28;20040;-69
2022/03/19 06:39:31;;;;;;;21.85;8.68;;;3.50;99.90;;;;;;5106887;28;20072;-69
2022/03/19 06:41:57;;;;;;;11.30;5.28;;;3.60;99.90;;;;;;5106481;28;20421;-69
2022/03/19 06:44:23;;;;;;;21.65;8.38;;;3.70;99.90;;;;;;5107132;28;20135;-69
2022/03/19 06:46:48;;;;;;;26.42;8.63;;;3.70;99.90;;;;;;5105241;28;20491;-69
2022/03/19 06:49:14;;;;;;;24.05;7.82;;;3.80;99.90;;;;;;5106464;28;20051;-69
2022/03/19 06:51:40;;;;;;;21.45;8.75;;;3.90;99.90;;;;;;5105804;28;20055;-69
2022/03/19 06:54:05;;;;;;;20.27;8.15;;;4.00;99.90;;;;;;5106457;28;20079;-69
2022/03/19 06:56:32;;;;;;;20.88;8.27;;;4.10;99.90;;;;;;5106383;28;20070;-69
2022/03/19 06:58:58;;;;;;;31.75;8.82;;;4.10;99.90;;;;;;5106522;28;20085;-69
2022/03/19 07:01:23;;;;;;;22.02;7.68;;;4.20;99.90;;;;;;5106264;28;20048;-69
2022/03/19 07:03:49;;;;;;;29.90;7.80;;;4.30;99.90;;;;;;5106094;28;20036;-69
2022/03/19 07:06:16;;;;;;;23.75;8.10;;;4.40;99.90;;;;;;5104399;28;20044;-69
2022/03/19 07:08:43;;;;;;;12.85;6.68;;;4.50;99.90;;;;;;5106748;28;20070;-70
2022/03/19 07:11:09;;;;;;;13.48;5.85;;;4.60;99.90;;;;;;5106063;28;20399;-70
2022/03/19 07:13:35;;;;;;;19.88;7.03;;;4.70;99.90;;;;;;5106353;28;20048;-70
2022/03/19 07:16:00;;;;;;;33.78;9.40;;;4.80;99.90;;;;;;5106130;28;20052;-70
2022/03/19 07:18:26;;;;;;;21.08;6.13;;;4.80;99.90;;;;;;5105708;28;20394;-69
2022/03/19 07:20:52;;;;;;;12.35;5.97;;;4.90;99.90;;;;;;5105669;28;20040;-69
2022/03/19 07:23:18;;;;;;;16.85;5.22;;;4.90;99.90;;;;;;5105967;28;20113;-69
2022/03/19 07:25:43;;;;;;;19.50;5.22;;;5.00;99.90;;;;;;5138882;27;20473;-70
2022/03/19 07:28:12;;;;;;;26.42;7.45;;;5.10;99.90;;;;;;5105227;28;20508;-70
2022/03/19 07:30:39;;;;;;;18.27;7.47;;;5.10;99.90;;;;;;5105811;28;20036;-69
2022/03/19 07:33:05;;;;;;;19.08;6.25;;;5.20;99.90;;;;;;5104439;28;20423;-69
2022/03/19 07:35:31;;;;;;;15.75;4.85;;;5.30;99.90;;;;;;5105785;28;20039;-70
2022/03/19 07:38:00;;;;;;;30.95;8.18;;;5.40;99.90;;;;;;5105312;28;20054;-69
2022/03/19 07:43:13;;;;;;;18.58;6.50;;;5.70;99.90;;;;;;5105459;28;20083;-69
2022/03/19 07:45:40;;;;;;;14.57;4.90;;;5.70;99.90;;;;;;5105694;28;20043;-69
2022/03/19 07:48:06;;;;;;;19.95;4.78;;;5.90;99.90;;;;;;5102024;28;20201;-68
2022/03/19 07:50:33;;;;;;;15.90;5.75;;;6.00;99.90;;;;;;5111016;28;20495;-69
2022/03/19 07:52:59;;;;;;;10.50;4.03;;;6.10;99.90;;;;;;5114310;28;20062;-70
2022/03/19 07:55:25;;;;;;;9.60;3.60;;;6.20;99.90;;;;;;5108029;28;20048;-70
2022/03/19 07:57:51;;;;;;;20.20;6.10;;;6.30;99.90;;;;;;5105101;28;20131;-69
2022/03/19 08:00:17;;;;;;;17.30;5.38;;;6.30;99.90;;;;;;5120232;28;20387;-70
2022/03/19 08:02:44;;;;;;;16.40;5.60;;;6.40;99.90;;;;;;5125822;28;20050;-70
2022/03/19 08:05:10;;;;;;;16.83;4.30;;;6.50;99.90;;;;;;5111011;28;20043;-69
2022/03/19 08:07:37;;;;;;;14.48;4.63;;;6.60;99.90;;;;;;5104425;28;20058;-70
2022/03/19 08:10:13;;;;;;;15.93;5.57;;;6.70;99.90;;;;;;5105083;28;20397;-70
2022/03/19 08:12:40;;;;;;;16.10;4.82;;;6.90;99.90;;;;;;5105024;28;20051;-70
2022/03/19 08:15:08;;;;;;;19.65;5.10;;;7.00;99.90;;;;;;5117834;28;20036;-70
2022/03/19 08:17:38;;;;;;;15.65;3.97;;;7.00;99.90;;;;;;5125774;28;20047;-70
2022/03/19 08:20:08;;;;;;;10.82;3.53;;;7.10;99.90;;;;;;5110405;28;20048;-72
2022/03/19 08:22:34;;;;;;;21.90;4.90;;;7.20;99.90;;;;;;5104018;28;20040;-70
2022/03/19 08:25:01;;;;;;;19.63;4.75;;;7.20;99.90;;;;;;5105848;28;20044;-70
2022/03/19 08:27:27;;;;;;;21.00;4.95;;;7.30;99.90;;;;;;5104494;28;20052;-70
2022/03/19 08:29:54;;;;;;;12.00;3.67;;;7.50;99.90;;;;;;5104951;28;20071;-70
2022/03/19 08:32:22;;;;;;;12.90;4.13;;;7.50;99.90;;;;;;5097424;28;20067;-70
2022/03/19 08:34:48;;;;;;;17.70;4.28;;;7.60;99.90;;;;;;5099507;28;20047;-70
2022/03/19 08:37:14;;;;;;;11.55;3.80;;;7.70;99.90;;;;;;5095743;28;20076;-70
2022/03/19 08:42:23;;;;;;;15.77;4.10;;;8.10;99.90;;;;;;5100486;28;20108;-70
2022/03/19 08:44:49;;;;;;;16.73;4.28;;;8.10;99.90;;;;;;5103446;28;20095;-70
2022/03/19 08:47:15;;;;;;;9.13;2.95;;;8.30;99.90;;;;;;5100119;28;20044;-70
2022/03/19 08:49:41;;;;;;;14.77;4.50;;;8.10;99.90;;;;;;5094410;28;20047;-70
2022/03/19 08:52:07;;;;;;;20.90;3.75;;;8.20;99.90;;;;;;5100922;28;20348;-69
2022/03/19 08:54:32;;;;;;;16.70;3.42;;;8.40;99.90;;;;;;5101688;28;20557;-70
2022/03/19 08:56:59;;;;;;;14.27;2.80;;;8.50;99.90;;;;;;5100257;28;20064;-70
2022/03/19 08:59:25;;;;;;;10.27;3.63;;;8.60;99.90;;;;;;5104550;28;20048;-70
2022/03/19 09:01:52;;;;;;;17.80;4.65;;;8.70;99.90;;;;;;5092047;28;20039;-70
2022/03/19 09:04:18;;;;;;;14.40;3.88;;;8.70;99.90;;;;;;5082355;28;20049;-69
2022/03/19 09:06:45;;;;;;;5.10;2.38;;;8.90;99.90;;;;;;5091799;28;20389;-69
2022/03/19 09:09:13;;;;;;;10.38;3.28;;;8.90;99.90;;;;;;5102505;28;20093;-70
2022/03/19 09:11:39;;;;;;;18.27;3.80;;;8.80;99.90;;;;;;5104259;28;20044;-70
2022/03/19 09:14:06;;;;;;;17.42;4.35;;;9.10;99.90;;;;;;5103494;28;20078;-71
2022/03/19 09:16:33;;;;;;;13.93;3.95;;;9.20;99.90;;;;;;5103706;28;20056;-70
2022/03/19 09:18:59;;;;;;;13.43;3.22;;;9.30;99.90;;;;;;5103620;28;20048;-70
2022/03/19 09:21:25;;;;;;;13.57;3.35;;;9.10;99.90;;;;;;5103200;28;20051;-70
2022/03/19 09:23:51;;;;;;;11.38;2.90;;;9.10;99.90;;;;;;5104112;28;20052;-70
2022/03/19 09:26:17;;;;;;;15.02;2.85;;;9.10;99.90;;;;;;5101708;28;20040;-71
2022/03/19 09:28:43;;;;;;;10.68;4.07;;;9.20;99.90;;;;;;5099067;28;20077;-70
2022/03/19 09:31:09;;;;;;;9.80;3.10;;;9.10;99.90;;;;;;5090832;28;20044;-70
2022/03/19 09:33:35;;;;;;;12.10;2.92;;;9.00;99.70;;;;;;5083530;28;20044;-69
2022/03/19 09:36:01;;;;;;;15.10;3.78;;;9.10;99.80;;;;;;5083091;28;20032;-69
2022/03/19 09:38:30;;;;;;;9.52;4.22;;;9.50;99.90;;;;;;5099411;28;20044;-68
2022/03/19 09:40:57;;;;;;;10.07;3.03;;;9.60;99.40;;;;;;5096254;28;20060;-66
2022/03/19 09:43:31;;;;;;;15.15;4.18;;;9.40;98.80;;;;;;5084288;28;20044;-65
2022/03/19 09:45:57;;;;;;;12.35;4.30;;;9.50;99.90;;;;;;5083376;28;20044;-66
2022/03/19 09:48:23;;;;;;;17.52;3.15;;;9.40;98.50;;;;;;5099454;28;20252;-71
2022/03/19 09:50:56;;;;;;;12.25;3.08;;;9.60;98.80;;;;;;5113972;28;20040;-68
2022/03/19 09:53:23;;;;;;;8.65;2.42;;;9.80;98.20;;;;;;5108139;28;20051;-68
2022/03/19 09:55:50;;;;;;;15.23;3.53;;;9.80;97.50;;;;;;5111080;28;20052;-64
2022/03/19 09:58:16;;;;;;;7.88;3.00;;;9.90;97.40;;;;;;5100775;28;20047;-65
2022/03/19 10:00:43;;;;;;;10.25;3.10;;;9.70;96.90;;;;;;5107532;28;20052;-60
2022/03/19 10:03:11;;;;;;;10.45;3.63;;;9.70;97.40;;;;;;5108102;28;20068;-67
2022/03/19 10:08:36;;;;;;;18.88;4.47;;;9.80;97.00;;;;;;5125798;28;20116;-59
2022/03/19 10:11:15;;;;;;;8.82;2.42;;;9.80;97.20;;;;;;5124232;28;20036;-61
2022/03/19 10:13:44;;;;;;;10.10;2.80;;;9.80;96.60;;;;;;5127806;28;20432;-65
2022/03/19 10:16:11;;;;;;;15.35;3.22;;;9.70;96.10;;;;;;5121021;28;20036;-65
2022/03/19 10:18:37;;;;;;;19.63;4.50;;;10.10;96.10;;;;;;5106398;28;20117;-62
2022/03/19 10:21:16;;;;;;;9.02;2.67;;;10.30;96.30;;;;;;5097888;28;20043;-67
2022/03/19 10:23:42;;;;;;;15.45;2.65;;;10.30;95.40;;;;;;5123128;28;20036;-67
2022/03/19 10:26:23;;;;;;;10.48;2.08;;;10.20;93.50;;;;;;5121066;28;20105;-68
2022/03/19 10:28:55;;;;;;;10.27;3.28;;;10.20;93.70;;;;;;5094728;28;20067;-68
2022/03/19 10:31:46;;;;;;;11.25;3.25;;;9.90;94.30;;;;;;5102874;28;20035;-67
2022/03/19 10:34:14;;;;;;;4.15;2.30;;;10.20;94.80;;;;;;5112032;28;20042;-68
2022/03/19 10:36:42;;;;;;;7.95;2.42;;;10.20;89.20;;;;;;5094897;28;20123;-67
2022/03/19 10:39:27;;;;;;;11.15;2.65;;;10.20;89.40;;;;;;5106656;28;20055;-67
2022/03/19 10:41:55;;;;;;;8.45;2.75;;;10.40;91.20;;;;;;5106824;28;20055;-68
2022/03/19 10:44:25;;;;;;;;;;;10.40;90.40;;;;;;5107090;28;20047;-68
2022/03/19 10:46:53;;;;;;;9.68;3.17;;;10.60;91.80;;;;;;5106390;28;19959;-68
2022/03/19 10:49:21;;;;;;;9.95;2.45;;;10.40;88.90;;;;;;5104673;28;20047;-68
2022/03/19 10:51:52;;;;;;;8.13;2.72;;;10.50;87.70;;;;;;5105478;28;20118;-68
2022/03/19 10:54:17;;;;;;;9.10;2.72;;;10.50;79.70;;;;;;5095068;28;20127;-62
2022/03/19 10:56:44;;;;;;;5.18;2.30;;;10.70;77.00;;;;;;5097047;28;20072;-69
2022/03/19 10:59:10;;;;;;;7.28;2.47;;;10.60;67.80;;;;;;5091869;28;20046;-62
2022/03/19 11:01:37;;;;;;;7.13;1.63;;;10.70;67.30;;;;;;5104117;28;20051;-63
2022/03/19 11:04:05;;;;;;;6.85;2.33;;;10.70;64.60;;;;;;5090816;28;20068;-62
2022/03/19 11:06:39;;;;;;;5.53;1.80;;;10.70;61.90;;;;;;5099238;28;20123;-63
2022/03/19 11:09:09;;;;;;;6.63;1.63;;;10.90;62.50;;;;;;5101649;28;20404;-66
2022/03/19 11:11:55;;;;;;;7.38;2.17;;;10.60;63.20;;;;;;5100300;28;20032;-65
2022/03/19 11:14:23;;;;;;;9.98;2.92;;;10.90;65.00;;;;;;5089567;28;20580;-66
2022/03/19 11:19:46;;;;;;;7.32;1.92;;;11.20;62.30;;;;;;5095505;28;20077;-66
2022/03/19 11:22:13;;;;;;;11.60;2.40;;;11.10;60.70;;;;;;5105428;28;20051;-66
2022/03/19 11:24:48;;;;;;;4.25;1.60;;;11.30;61.20;;;;;;5088683;28;20116;-66
2022/03/19 11:27:15;;;;;;;6.85;1.88;;;11.20;59.00;;;;;;5085804;28;20047;-67
2022/03/19 11:29:41;;;;;;;9.18;1.65;;;11.40;59.80;;;;;;5089914;28;20108;-67
2022/03/19 11:32:07;;;;;;;5.75;1.98;;;11.20;57.70;;;;;;5091509;28;20051;-68
2022/03/19 11:34:46;;;;;;;5.65;1.75;;;11.20;57.80;;;;;;5088365;28;20503;-66
2022/03/19 11:37:13;;;;;;;11.60;1.90;;;11.20;57.60;;;;;;5100350;28;20071;-70
2022/03/19 11:39:59;;;;;;;5.40;1.85;;;11.50;59.00;;;;;;5105706;28;20048;-67
2022/03/19 11:42:32;;;;;;;6.07;1.58;;;11.80;57.60;;;;;;5105079;28;20051;-68
2022/03/19 11:45:09;;;;;;;5.75;2.00;;;11.80;56.80;;;;;;5106026;28;20036;-66
2022/03/19 11:47:35;;;;;;;3.10;1.00;;;11.80;55.60;;;;;;5086441;28;20500;-66
2022/03/19 11:50:02;;;;;;;2.83;1.17;;;12.10;55.10;;;;;;5101411;28;20059;-69
2022/03/19 11:52:31;;;;;;;5.13;1.90;;;12.20;53.40;;;;;;5099596;28;20044;-67
2022/03/19 11:55:07;;;;;;;3.17;1.02;;;12.40;55.80;;;;;;5105265;28;20052;-70
2022/03/19 11:57:56;;;;;;;4.00;1.05;;;12.80;51.50;;;;;;5104752;28;20097;-67
2022/03/19 12:00:24;;;;;;;4.97;2.03;;;12.70;50.60;;;;;;5105567;28;20054;-66
2022/03/19 12:03:09;;;;;;;3.83;1.58;;;12.90;51.60;;;;;;5105212;28;20043;-72
2022/03/19 12:05:41;;;;;;;3.28;1.00;;;12.60;51.40;;;;;;5089265;28;20123;-64
2022/03/19 12:08:14;;;;;;;1.73;0.90;;;12.80;50.80;;;;;;5104097;28;20036;-64
2022/03/19 12:11:01;;;;;;;4.97;1.30;;;13.30;51.10;;;;;;5104841;28;20070;-64
2022/03/19 12:13:26;;;;;;;2.35;1.17;;;13.10;50.40;;;;;;5104702;28;20067;-65
2022/03/19 12:15:53;;;;;;;2.58;1.05;;;13.30;50.10;;;;;;5104895;28;20036;-65
2022/03/19 12:18:45;;;;;;;3.23;1.13;;;13.40;50.50;;;;;;5105442;28;20051;-64
2022/03/19 12:21:11;;;;;;;3.17;0.88;;;13.40;49.10;;;;;;5101071;28;20290;-66
2022/03/19 12:23:59;;;;;;;4.95;0.90;;;13.20;47.80;;;;;;5084416;28;20071;-67
2022/03/19 12:26:35;;;;;;;4.68;1.38;;;13.30;47.50;;;;;;5084208;28;20071;-66
2022/03/19 12:29:03;;;;;;;2.95;0.85;;;13.10;49.80;;;;;;5087959;28;20100;-66
2022/03/19 12:31:34;;;;;;;4.38;1.05;;;13.40;48.40;;;;;;5104668;28;20044;-65
2022/03/19 12:34:00;;;;;;;3.22;1.48;;;13.70;48.70;;;;;;5104442;28;20228;-65
2022/03/19 12:36:27;;;;;;;4.45;1.40;;;13.50;48.90;;;;;;5103706;28;20099;-68
2022/03/19 12:38:52;;;;;;;3.75;1.00;;;13.70;49.00;;;;;;5103838;28;20553;-66
2022/03/19 12:41:28;;;;;;;4.10;1.10;;;13.70;49.30;;;;;;5103331;28;20036;-72
2022/03/19 12:43:56;;;;;;;4.85;1.55;;;13.70;48.30;;;;;;5103314;28;20048;-71
2022/03/19 12:46:30;;;;;;;7.15;1.88;;;14.00;48.80;;;;;;5103942;28;20083;-72
2022/03/19 12:49:09;;;;;;;3.28;1.27;;;13.80;43.20;;;;;;5103447;28;20051;-65
2022/03/19 12:51:37;;;;;;;1.77;0.75;;;13.50;45.40;;;;;;5093644;28;20100;-65
2022/03/19 12:54:19;;;;;;;3.65;1.10;;;13.70;44.70;;;;;;5091535;28;20051;-70
2022/03/19 12:56:45;;;;;;;2.08;0.77;;;13.50;44.50;;;;;;5101363;28;20044;-68
2022/03/19 12:59:22;;;;;;;3.22;1.10;;;13.50;43.50;;;;;;5103542;28;20470;-69
2022/03/19 13:01:50;;;;;;;3.03;1.20;;;13.20;43.60;;;;;;5102634;28;20048;-68
2022/03/19 13:04:21;;;;;;;3.92;1.48;;;13.50;44.70;;;;;;5103728;28;20096;-68
2022/03/19 13:06:47;;;;;;;3.22;1.20;;;13.80;44.00;;;;;;5103007;28;20063;-69